sensor_id;sensor_type;location;lat;lon;timestamp;P1;durP1;ratioP1;P2;durP2;ratioP2
10063;SDS011;5071;52.360;13.134;2022-08-20T00:03:37;17.43;;;12.23;;
10063;SDS011;5071;52.360;13.134;2022-08-20T00:08:45;18.40;;;12.43;;
10063;SDS011;5071;52.360;13.134;2022-08-20T00:13:50;18.43;;;12.60;;
10063;SDS011;5071;52.360;13.134;2022-08-20T00:18:53;19.60;;;14.27;;
10063;SDS011;5071;52.360;13.134;2022-08-20T00:23:55;17.40;;;13.27;;
10063;SDS011;5071;52.360;13.134;2022-08-20T00:28:58;19.00;;;13.87;;
10063;SDS011;5071;52.360;13.134;2022-08-20T00:34:01;17.80;;;13.57;;
10063;SDS011;5071;52.360;13.134;2022-08-20T00:39:03;18.80;;;12.73;;
10063;SDS011;5071;52.360;13.134;2022-08-20T00:44:08;17.17;;;13.43;;
10063;SDS011;5071;52.360;13.134;2022-08-20T00:49:13;17.17;;;12.73;;
10063;SDS011;5071;52.360;13.134;2022-08-20T00:54:18;18.83;;;13.63;;
10063;SDS011;5071;52.360;13.134;2022-08-20T00:59:26;17.27;;;12.63;;
10063;SDS011;5071;52.360;13.134;2022-08-20T01:04:30;17.40;;;12.23;;
10063;SDS011;5071;52.360;13.134;2022-08-20T01:09:35;17.67;;;12.60;;
10063;SDS011;5071;52.360;13.134;2022-08-20T01:15:00;17.53;;;12.70;;
10063;SDS011;5071;52.360;13.134;2022-08-20T01:20:05;18.73;;;12.90;;
10063;SDS011;5071;52.360;13.134;2022-08-20T01:25:11;15.27;;;11.23;;
10063;SDS011;5071;52.360;13.134;2022-08-20T01:30:22;13.90;;;10.67;;
10063;SDS011;5071;52.360;13.134;2022-08-20T01:35:27;14.13;;;10.70;;
10063;SDS011;5071;52.360;13.134;2022-08-20T01:40:35;16.10;;;12.73;;
10063;SDS011;5071;52.360;13.134;2022-08-20T01:45:52;15.47;;;11.67;;
10063;SDS011;5071;52.360;13.134;2022-08-20T01:50:56;14.50;;;12.13;;
10063;SDS011;5071;52.360;13.134;2022-08-20T01:56:04;17.67;;;12.70;;
10063;SDS011;5071;52.360;13.134;2022-08-20T02:01:16;15.97;;;12.23;;
10063;SDS011;5071;52.360;13.134;2022-08-20T02:06:20;17.13;;;13.37;;
10063;SDS011;5071;52.360;13.134;2022-08-20T02:11:22;19.83;;;13.47;;
10063;SDS011;5071;52.360;13.134;2022-08-20T02:16:27;20.23;;;14.83;;
10063;SDS011;5071;52.360;13.134;2022-08-20T02:21:31;21.53;;;14.40;;
10063;SDS011;5071;52.360;13.134;2022-08-20T02:26:33;19.40;;;13.27;;
10063;SDS011;5071;52.360;13.134;2022-08-20T02:31:37;18.33;;;13.97;;
10063;SDS011;5071;52.360;13.134;2022-08-20T02:37:00;16.43;;;12.23;;
10063;SDS011;5071;52.360;13.134;2022-08-20T02:42:02;20.40;;;13.83;;
10063;SDS011;5071;52.360;13.134;2022-08-20T02:47:05;17.50;;;13.27;;
10063;SDS011;5071;52.360;13.134;2022-08-20T02:52:08;18.03;;;12.63;;
10063;SDS011;5071;52.360;13.134;2022-08-20T02:57:10;19.40;;;14.00;;
10063;SDS011;5071;52.360;13.134;2022-08-20T03:02:14;19.73;;;14.03;;
10063;SDS011;5071;52.360;13.134;2022-08-20T03:07:16;22.73;;;15.00;;
10063;SDS011;5071;52.360;13.134;2022-08-20T03:12:18;23.80;;;16.53;;
10063;SDS011;5071;52.360;13.134;2022-08-20T03:17:21;26.10;;;16.73;;
10063;SDS011;5071;52.360;13.134;2022-08-20T03:22:23;25.23;;;15.77;;
10063;SDS011;5071;52.360;13.134;2022-08-20T03:27:25;27.37;;;16.70;;
10063;SDS011;5071;52.360;13.134;2022-08-20T03:32:38;26.73;;;17.50;;
10063;SDS011;5071;52.360;13.134;2022-08-20T03:37:41;24.17;;;16.90;;
10063;SDS011;5071;52.360;13.134;2022-08-20T03:42:48;24.10;;;17.60;;
10063;SDS011;5071;52.360;13.134;2022-08-20T03:47:52;26.27;;;17.07;;
10063;SDS011;5071;52.360;13.134;2022-08-20T03:52:55;25.50;;;15.97;;
10063;SDS011;5071;52.360;13.134;2022-08-20T03:57:58;28.40;;;18.03;;
10063;SDS011;5071;52.360;13.134;2022-08-20T04:03:04;29.43;;;18.10;;
10063;SDS011;5071;52.360;13.134;2022-08-20T04:08:06;28.47;;;17.73;;
10063;SDS011;5071;52.360;13.134;2022-08-20T04:13:10;27.97;;;16.43;;
10063;SDS011;5071;52.360;13.134;2022-08-20T04:18:14;23.43;;;16.30;;
10063;SDS011;5071;52.360;13.134;2022-08-20T04:23:17;26.93;;;16.93;;
10063;SDS011;5071;52.360;13.134;2022-08-20T04:28:20;28.33;;;17.47;;
10063;SDS011;5071;52.360;13.134;2022-08-20T04:33:24;28.10;;;18.47;;
10063;SDS011;5071;52.360;13.134;2022-08-20T04:38:36;30.97;;;19.27;;
10063;SDS011;5071;52.360;13.134;2022-08-20T04:43:52;33.47;;;19.60;;
10063;SDS011;5071;52.360;13.134;2022-08-20T04:48:57;30.43;;;19.20;;
10063;SDS011;5071;52.360;13.134;2022-08-20T04:53:59;31.13;;;19.87;;
10063;SDS011;5071;52.360;13.134;2022-08-20T04:59:02;33.63;;;21.57;;
10063;SDS011;5071;52.360;13.134;2022-08-20T05:04:05;34.53;;;20.40;;
10063;SDS011;5071;52.360;13.134;2022-08-20T05:09:07;33.47;;;21.47;;
10063;SDS011;5071;52.360;13.134;2022-08-20T05:14:09;31.03;;;20.73;;
10063;SDS011;5071;52.360;13.134;2022-08-20T05:19:12;32.40;;;20.93;;
10063;SDS011;5071;52.360;13.134;2022-08-20T05:24:14;29.73;;;19.63;;
10063;SDS011;5071;52.360;13.134;2022-08-20T05:29:16;31.90;;;20.90;;
10063;SDS011;5071;52.360;13.134;2022-08-20T05:34:19;30.40;;;19.67;;
10063;SDS011;5071;52.360;13.134;2022-08-20T05:39:22;32.83;;;20.43;;
10063;SDS011;5071;52.360;13.134;2022-08-20T05:44:23;30.30;;;19.43;;
10063;SDS011;5071;52.360;13.134;2022-08-20T05:49:27;32.97;;;21.10;;
10063;SDS011;5071;52.360;13.134;2022-08-20T05:54:29;30.20;;;19.10;;
10063;SDS011;5071;52.360;13.134;2022-08-20T05:59:30;32.97;;;19.27;;
10063;SDS011;5071;52.360;13.134;2022-08-20T06:04:34;31.23;;;19.63;;
10063;SDS011;5071;52.360;13.134;2022-08-20T06:09:36;26.10;;;18.27;;
10063;SDS011;5071;52.360;13.134;2022-08-20T06:14:41;28.87;;;18.83;;
10063;SDS011;5071;52.360;13.134;2022-08-20T06:19:45;32.93;;;21.57;;
10063;SDS011;5071;52.360;13.134;2022-08-20T06:24:47;30.13;;;18.77;;
10063;SDS011;5071;52.360;13.134;2022-08-20T06:29:52;31.07;;;19.13;;
10063;SDS011;5071;52.360;13.134;2022-08-20T06:34:56;29.13;;;18.13;;
10063;SDS011;5071;52.360;13.134;2022-08-20T06:40:02;31.23;;;18.63;;
10063;SDS011;5071;52.360;13.134;2022-08-20T06:45:09;29.37;;;19.33;;
10063;SDS011;5071;52.360;13.134;2022-08-20T06:50:13;30.17;;;20.33;;
10063;SDS011;5071;52.360;13.134;2022-08-20T06:55:18;31.27;;;19.07;;
10063;SDS011;5071;52.360;13.134;2022-08-20T07:00:21;29.50;;;19.10;;
10063;SDS011;5071;52.360;13.134;2022-08-20T07:05:25;32.10;;;19.80;;
10063;SDS011;5071;52.360;13.134;2022-08-20T07:10:27;26.67;;;17.77;;
10063;SDS011;5071;52.360;13.134;2022-08-20T07:15:30;26.93;;;18.90;;
10063;SDS011;5071;52.360;13.134;2022-08-20T07:20:34;27.87;;;18.33;;
10063;SDS011;5071;52.360;13.134;2022-08-20T07:25:37;28.20;;;18.27;;
10063;SDS011;5071;52.360;13.134;2022-08-20T07:30:41;27.17;;;18.67;;
10063;SDS011;5071;52.360;13.134;2022-08-20T07:36:00;28.80;;;17.40;;
10063;SDS011;5071;52.360;13.134;2022-08-20T07:41:04;27.47;;;18.97;;
10063;SDS011;5071;52.360;13.134;2022-08-20T07:46:08;26.03;;;18.43;;
10063;SDS011;5071;52.360;13.134;2022-08-20T07:51:11;28.80;;;18.30;;
10063;SDS011;5071;52.360;13.134;2022-08-20T07:56:15;27.27;;;18.10;;
10063;SDS011;5071;52.360;13.134;2022-08-20T08:01:25;28.45;;;18.92;;
10063;SDS011;5071;52.360;13.134;2022-08-20T08:06:32;27.25;;;19.50;;
10063;SDS011;5071;52.360;13.134;2022-08-20T08:11:35;31.92;;;19.63;;
10063;SDS011;5071;52.360;13.134;2022-08-20T08:16:40;23.50;;;17.95;;
10063;SDS011;5071;52.360;13.134;2022-08-20T08:21:44;25.50;;;18.95;;
10063;SDS011;5071;52.360;13.134;2022-08-20T08:26:46;26.93;;;16.63;;
10063;SDS011;5071;52.360;13.134;2022-08-20T08:31:48;26.05;;;17.73;;
10063;SDS011;5071;52.360;13.134;2022-08-20T08:36:51;24.10;;;17.35;;
10063;SDS011;5071;52.360;13.134;2022-08-20T08:41:56;22.38;;;16.02;;
10063;SDS011;5071;52.360;13.134;2022-08-20T08:47:01;19.52;;;14.35;;
10063;SDS011;5071;52.360;13.134;2022-08-20T08:52:10;22.63;;;15.25;;
10063;SDS011;5071;52.360;13.134;2022-08-20T08:57:16;22.67;;;15.30;;
10063;SDS011;5071;52.360;13.134;2022-08-20T09:02:20;17.52;;;13.45;;
10063;SDS011;5071;52.360;13.134;2022-08-20T09:07:26;20.55;;;13.93;;
10063;SDS011;5071;52.360;13.134;2022-08-20T09:12:32;18.58;;;13.20;;
10063;SDS011;5071;52.360;13.134;2022-08-20T09:17:33;19.15;;;13.63;;
10063;SDS011;5071;52.360;13.134;2022-08-20T09:22:37;16.55;;;12.40;;
10063;SDS011;5071;52.360;13.134;2022-08-20T09:27:39;18.77;;;13.02;;
10063;SDS011;5071;52.360;13.134;2022-08-20T09:32:43;15.73;;;12.32;;
10063;SDS011;5071;52.360;13.134;2022-08-20T09:37:47;16.98;;;12.25;;
10063;SDS011;5071;52.360;13.134;2022-08-20T09:42:51;14.48;;;11.13;;
10063;SDS011;5071;52.360;13.134;2022-08-20T09:47:53;14.18;;;11.43;;
10063;SDS011;5071;52.360;13.134;2022-08-20T09:53:00;15.50;;;11.70;;
10063;SDS011;5071;52.360;13.134;2022-08-20T09:58:05;12.30;;;9.07;;
10063;SDS011;5071;52.360;13.134;2022-08-20T10:03:10;12.52;;;8.68;;
10063;SDS011;5071;52.360;13.134;2022-08-20T10:08:14;8.85;;;7.88;;
10063;SDS011;5071;52.360;13.134;2022-08-20T10:13:16;9.27;;;7.38;;
10063;SDS011;5071;52.360;13.134;2022-08-20T10:18:18;10.48;;;8.48;;
10063;SDS011;5071;52.360;13.134;2022-08-20T10:23:22;9.95;;;7.75;;
10063;SDS011;5071;52.360;13.134;2022-08-20T10:28:24;10.60;;;7.00;;
10063;SDS011;5071;52.360;13.134;2022-08-20T10:33:26;9.60;;;7.45;;
10063;SDS011;5071;52.360;13.134;2022-08-20T10:38:30;7.82;;;6.60;;
10063;SDS011;5071;52.360;13.134;2022-08-20T10:43:32;8.15;;;6.10;;
10063;SDS011;5071;52.360;13.134;2022-08-20T10:48:34;7.50;;;6.15;;
10063;SDS011;5071;52.360;13.134;2022-08-20T10:53:38;7.55;;;6.75;;
10063;SDS011;5071;52.360;13.134;2022-08-20T10:58:41;8.25;;;6.35;;
10063;SDS011;5071;52.360;13.134;2022-08-20T11:03:44;7.10;;;5.90;;
10063;SDS011;5071;52.360;13.134;2022-08-20T11:08:48;6.05;;;5.35;;
10063;SDS011;5071;52.360;13.134;2022-08-20T11:13:53;6.15;;;4.93;;
10063;SDS011;5071;52.360;13.134;2022-08-20T11:18:56;8.27;;;5.28;;
10063;SDS011;5071;52.360;13.134;2022-08-20T11:24:00;5.22;;;4.72;;
10063;SDS011;5071;52.360;13.134;2022-08-20T11:29:03;4.78;;;4.30;;
10063;SDS011;5071;52.360;13.134;2022-08-20T11:34:05;5.68;;;3.72;;
10063;SDS011;5071;52.360;13.134;2022-08-20T11:39:14;4.35;;;3.83;;
10063;SDS011;5071;52.360;13.134;2022-08-20T11:44:16;6.13;;;4.00;;
10063;SDS011;5071;52.360;13.134;2022-08-20T11:49:21;4.50;;;4.10;;
10063;SDS011;5071;52.360;13.134;2022-08-20T11:54:25;4.43;;;4.03;;
10063;SDS011;5071;52.360;13.134;2022-08-20T11:59:27;3.28;;;2.80;;
10063;SDS011;5071;52.360;13.134;2022-08-20T12:04:29;4.40;;;3.85;;
10063;SDS011;5071;52.360;13.134;2022-08-20T12:09:35;4.03;;;3.60;;
10063;SDS011;5071;52.360;13.134;2022-08-20T12:14:42;5.05;;;3.47;;
10063;SDS011;5071;52.360;13.134;2022-08-20T12:19:44;6.07;;;3.60;;
10063;SDS011;5071;52.360;13.134;2022-08-20T12:24:48;4.85;;;4.35;;
10063;SDS011;5071;52.360;13.134;2022-08-20T12:29:50;5.00;;;4.50;;
10063;SDS011;5071;52.360;13.134;2022-08-20T12:34:54;5.78;;;4.55;;
10063;SDS011;5071;52.360;13.134;2022-08-20T12:39:58;5.10;;;4.47;;
10063;SDS011;5071;52.360;13.134;2022-08-20T12:45:03;5.55;;;4.72;;
10063;SDS011;5071;52.360;13.134;2022-08-20T12:50:06;5.72;;;4.90;;
10063;SDS011;5071;52.360;13.134;2022-08-20T12:55:12;5.03;;;4.47;;
10063;SDS011;5071;52.360;13.134;2022-08-20T13:00:17;5.05;;;4.55;;
10063;SDS011;5071;52.360;13.134;2022-08-20T13:05:22;6.07;;;3.75;;
10063;SDS011;5071;52.360;13.134;2022-08-20T13:10:26;5.80;;;5.10;;
10063;SDS011;5071;52.360;13.134;2022-08-20T13:15:30;6.33;;;5.40;;
10063;SDS011;5071;52.360;13.134;2022-08-20T13:20:34;8.02;;;5.80;;
10063;SDS011;5071;52.360;13.134;2022-08-20T13:25:38;9.80;;;6.05;;
10063;SDS011;5071;52.360;13.134;2022-08-20T13:30:40;8.10;;;5.93;;
10063;SDS011;5071;52.360;13.134;2022-08-20T13:35:42;8.80;;;6.07;;
10063;SDS011;5071;52.360;13.134;2022-08-20T13:40:46;8.73;;;6.23;;
10063;SDS011;5071;52.360;13.134;2022-08-20T13:45:49;7.90;;;5.75;;
10063;SDS011;5071;52.360;13.134;2022-08-20T13:50:51;7.43;;;5.97;;
10063;SDS011;5071;52.360;13.134;2022-08-20T13:55:56;7.25;;;6.38;;
10063;SDS011;5071;52.360;13.134;2022-08-20T14:00:58;8.13;;;7.05;;
10063;SDS011;5071;52.360;13.134;2022-08-20T14:06:00;9.88;;;5.57;;
10063;SDS011;5071;52.360;13.134;2022-08-20T14:11:04;8.68;;;7.78;;
10063;SDS011;5071;52.360;13.134;2022-08-20T14:16:10;8.55;;;7.10;;
10063;SDS011;5071;52.360;13.134;2022-08-20T14:21:28;9.00;;;6.15;;
10063;SDS011;5071;52.360;13.134;2022-08-20T14:26:31;8.32;;;6.80;;
10063;SDS011;5071;52.360;13.134;2022-08-20T14:31:33;10.10;;;7.15;;
10063;SDS011;5071;52.360;13.134;2022-08-20T14:36:35;9.45;;;6.65;;
10063;SDS011;5071;52.360;13.134;2022-08-20T14:41:38;8.95;;;7.28;;
10063;SDS011;5071;52.360;13.134;2022-08-20T14:46:40;8.00;;;6.95;;
10063;SDS011;5071;52.360;13.134;2022-08-20T14:51:42;8.27;;;7.00;;
10063;SDS011;5071;52.360;13.134;2022-08-20T14:56:45;7.60;;;6.57;;
10063;SDS011;5071;52.360;13.134;2022-08-20T15:01:47;7.93;;;6.75;;
10063;SDS011;5071;52.360;13.134;2022-08-20T15:06:49;10.85;;;7.93;;
10063;SDS011;5071;52.360;13.134;2022-08-20T15:11:56;10.43;;;7.95;;
10063;SDS011;5071;52.360;13.134;2022-08-20T15:16:58;9.07;;;6.82;;
10063;SDS011;5071;52.360;13.134;2022-08-20T15:22:00;9.48;;;7.10;;
10063;SDS011;5071;52.360;13.134;2022-08-20T15:27:13;8.88;;;6.57;;
10063;SDS011;5071;52.360;13.134;2022-08-20T15:32:22;9.00;;;7.10;;
10063;SDS011;5071;52.360;13.134;2022-08-20T15:37:25;8.80;;;7.18;;
10063;SDS011;5071;52.360;13.134;2022-08-20T15:42:28;10.82;;;7.57;;
10063;SDS011;5071;52.360;13.134;2022-08-20T15:47:30;11.20;;;8.63;;
10063;SDS011;5071;52.360;13.134;2022-08-20T15:52:36;10.10;;;7.45;;
10063;SDS011;5071;52.360;13.134;2022-08-20T15:57:45;6.95;;;6.22;;
10063;SDS011;5071;52.360;13.134;2022-08-20T16:03:07;8.32;;;6.50;;
10063;SDS011;5071;52.360;13.134;2022-08-20T16:08:24;9.98;;;7.75;;
10063;SDS011;5071;52.360;13.134;2022-08-20T16:14:11;12.35;;;8.15;;
10063;SDS011;5071;52.360;13.134;2022-08-20T16:19:19;9.25;;;8.10;;
10063;SDS011;5071;52.360;13.134;2022-08-20T16:24:23;8.82;;;7.82;;
10063;SDS011;5071;52.360;13.134;2022-08-20T16:29:29;7.97;;;6.45;;
10063;SDS011;5071;52.360;13.134;2022-08-20T16:34:41;9.52;;;7.95;;
10063;SDS011;5071;52.360;13.134;2022-08-20T16:39:50;7.85;;;6.60;;
10063;SDS011;5071;52.360;13.134;2022-08-20T16:44:59;8.18;;;6.95;;
10063;SDS011;5071;52.360;13.134;2022-08-20T16:50:04;12.55;;;9.20;;
10063;SDS011;5071;52.360;13.134;2022-08-20T16:55:09;9.05;;;8.15;;
10063;SDS011;5071;52.360;13.134;2022-08-20T17:00:17;10.13;;;9.00;;
10063;SDS011;5071;52.360;13.134;2022-08-20T17:05:23;11.55;;;8.65;;
10063;SDS011;5071;52.360;13.134;2022-08-20T17:10:29;10.13;;;7.75;;
10063;SDS011;5071;52.360;13.134;2022-08-20T17:15:34;12.50;;;9.43;;
10063;SDS011;5071;52.360;13.134;2022-08-20T17:20:42;11.85;;;9.60;;
10063;SDS011;5071;52.360;13.134;2022-08-20T17:25:53;10.63;;;8.18;;
10063;SDS011;5071;52.360;13.134;2022-08-20T17:30:59;13.50;;;9.93;;
10063;SDS011;5071;52.360;13.134;2022-08-20T17:36:03;8.80;;;7.25;;
10063;SDS011;5071;52.360;13.134;2022-08-20T17:41:10;9.93;;;7.20;;
10063;SDS011;5071;52.360;13.134;2022-08-20T17:46:19;11.05;;;7.50;;
10063;SDS011;5071;52.360;13.134;2022-08-20T17:51:23;10.00;;;7.40;;
10063;SDS011;5071;52.360;13.134;2022-08-20T17:56:30;10.10;;;8.93;;
10063;SDS011;5071;52.360;13.134;2022-08-20T18:01:35;9.55;;;7.97;;
10063;SDS011;5071;52.360;13.134;2022-08-20T18:06:39;9.73;;;8.60;;
10063;SDS011;5071;52.360;13.134;2022-08-20T18:11:50;11.77;;;8.88;;
10063;SDS011;5071;52.360;13.134;2022-08-20T18:22:34;6.13;;;4.70;;
10063;SDS011;5071;52.360;13.134;2022-08-20T18:27:45;5.17;;;4.67;;
10063;SDS011;5071;52.360;13.134;2022-08-20T18:33:04;4.30;;;3.80;;
10063;SDS011;5071;52.360;13.134;2022-08-20T18:38:09;3.40;;;3.10;;
10063;SDS011;5071;52.360;13.134;2022-08-20T18:43:13;4.43;;;2.90;;
10063;SDS011;5071;52.360;13.134;2022-08-20T18:48:20;3.13;;;2.83;;
10063;SDS011;5071;52.360;13.134;2022-08-20T18:53:25;3.13;;;2.60;;
10063;SDS011;5071;52.360;13.134;2022-08-20T18:58:35;2.90;;;2.60;;
10063;SDS011;5071;52.360;13.134;2022-08-20T19:03:52;3.07;;;2.77;;
10063;SDS011;5071;52.360;13.134;2022-08-20T19:08:59;2.60;;;2.40;;
10063;SDS011;5071;52.360;13.134;2022-08-20T19:14:08;4.43;;;3.10;;
10063;SDS011;5071;52.360;13.134;2022-08-20T19:19:22;3.33;;;2.43;;
10063;SDS011;5071;52.360;13.134;2022-08-20T19:24:30;5.67;;;3.00;;
10063;SDS011;5071;52.360;13.134;2022-08-20T19:29:35;3.57;;;2.97;;
10063;SDS011;5071;52.360;13.134;2022-08-20T19:34:48;2.93;;;2.57;;
10063;SDS011;5071;52.360;13.134;2022-08-20T19:39:52;3.40;;;2.43;;
10063;SDS011;5071;52.360;13.134;2022-08-20T19:44:56;3.00;;;2.70;;
10063;SDS011;5071;52.360;13.134;2022-08-20T19:50:15;2.90;;;2.47;;
10063;SDS011;5071;52.360;13.134;2022-08-20T19:55:23;3.60;;;3.20;;
10063;SDS011;5071;52.360;13.134;2022-08-20T20:00:29;3.47;;;2.80;;
10063;SDS011;5071;52.360;13.134;2022-08-20T20:05:49;3.97;;;3.33;;
10063;SDS011;5071;52.360;13.134;2022-08-20T20:10:54;3.50;;;3.20;;
10063;SDS011;5071;52.360;13.134;2022-08-20T20:16:00;4.60;;;3.47;;
10063;SDS011;5071;52.360;13.134;2022-08-20T20:21:10;4.87;;;4.40;;
10063;SDS011;5071;52.360;13.134;2022-08-20T20:26:15;5.40;;;4.90;;
10063;SDS011;5071;52.360;13.134;2022-08-20T20:31:20;5.40;;;4.60;;
10063;SDS011;5071;52.360;13.134;2022-08-20T20:36:34;5.37;;;4.40;;
10063;SDS011;5071;52.360;13.134;2022-08-20T20:41:38;4.80;;;4.37;;
10063;SDS011;5071;52.360;13.134;2022-08-20T20:46:51;5.27;;;4.53;;
10063;SDS011;5071;52.360;13.134;2022-08-20T20:51:59;6.67;;;5.33;;
10063;SDS011;5071;52.360;13.134;2022-08-20T20:57:05;4.80;;;4.37;;
10063;SDS011;5071;52.360;13.134;2022-08-20T21:02:09;4.53;;;3.60;;
10063;SDS011;5071;52.360;13.134;2022-08-20T21:07:13;6.93;;;4.77;;
10063;SDS011;5071;52.360;13.134;2022-08-20T21:12:18;5.37;;;4.37;;
10063;SDS011;5071;52.360;13.134;2022-08-20T21:17:20;8.30;;;7.07;;
10063;SDS011;5071;52.360;13.134;2022-08-20T21:22:24;7.97;;;6.80;;
10063;SDS011;5071;52.360;13.134;2022-08-20T21:27:27;8.07;;;6.30;;
10063;SDS011;5071;52.360;13.134;2022-08-20T21:32:30;6.77;;;6.03;;
10063;SDS011;5071;52.360;13.134;2022-08-20T21:37:33;8.80;;;7.10;;
10063;SDS011;5071;52.360;13.134;2022-08-20T21:42:37;8.67;;;6.87;;
10063;SDS011;5071;52.360;13.134;2022-08-20T21:47:40;8.10;;;6.13;;
10063;SDS011;5071;52.360;13.134;2022-08-20T21:52:48;4.33;;;3.90;;
10063;SDS011;5071;52.360;13.134;2022-08-20T21:58:00;6.20;;;4.10;;
10063;SDS011;5071;52.360;13.134;2022-08-20T22:03:02;4.90;;;3.73;;
10063;SDS011;5071;52.360;13.134;2022-08-20T22:08:06;6.37;;;3.63;;
10063;SDS011;5071;52.360;13.134;2022-08-20T22:13:07;4.80;;;3.67;;
10063;SDS011;5071;52.360;13.134;2022-08-20T22:18:11;5.83;;;3.60;;
10063;SDS011;5071;52.360;13.134;2022-08-20T22:23:15;3.73;;;3.23;;
10063;SDS011;5071;52.360;13.134;2022-08-20T22:28:17;3.90;;;3.60;;
10063;SDS011;5071;52.360;13.134;2022-08-20T22:33:21;4.23;;;3.67;;
10063;SDS011;5071;52.360;13.134;2022-08-20T22:38:25;4.97;;;4.00;;
10063;SDS011;5071;52.360;13.134;2022-08-20T22:43:27;4.37;;;3.97;;
10063;SDS011;5071;52.360;13.134;2022-08-20T22:48:28;5.37;;;4.37;;
10063;SDS011;5071;52.360;13.134;2022-08-20T22:53:32;7.23;;;5.20;;
10063;SDS011;5071;52.360;13.134;2022-08-20T22:58:34;4.80;;;4.37;;
10063;SDS011;5071;52.360;13.134;2022-08-20T23:03:36;6.27;;;4.70;;
10063;SDS011;5071;52.360;13.134;2022-08-20T23:08:42;6.90;;;4.47;;
10063;SDS011;5071;52.360;13.134;2022-08-20T23:13:44;4.60;;;4.20;;
10063;SDS011;5071;52.360;13.134;2022-08-20T23:18:46;6.00;;;5.40;;
10063;SDS011;5071;52.360;13.134;2022-08-20T23:23:49;4.93;;;4.53;;
10063;SDS011;5071;52.360;13.134;2022-08-20T23:28:51;4.93;;;4.50;;
10063;SDS011;5071;52.360;13.134;2022-08-20T23:33:53;6.57;;;5.33;;
10063;SDS011;5071;52.360;13.134;2022-08-20T23:38:56;5.03;;;4.20;;
10063;SDS011;5071;52.360;13.134;2022-08-20T23:43:58;4.70;;;4.30;;
10063;SDS011;5071;52.360;13.134;2022-08-20T23:49:00;4.83;;;4.17;;
10063;SDS011;5071;52.360;13.134;2022-08-20T23:54:03;5.63;;;4.90;;
10063;SDS011;5071;52.360;13.134;2022-08-20T23:59:05;5.03;;;4.13;;
